Colchester, Connecticut
Current Conditions -  °F | °C
As of 3:52 PM on Saturday 22 Nov 2014 (Local Time) from KIJD Reporting Station
Scattered Clouds Scattered Clouds  
Wind Chill: 33°   Ceiling: Unl
Heat Index: 39°   Visibility: 10mi
Dew Point: 15°   Wind: 9mph
Humidity: 38%   Direction: 220°SW
Pressure: 30.22"   Gusts: NA
Location:  41.58°N, 72.33°W
Report Text: KIJD 222052Z AUTO 22008KT 10SM SCT100 04/M09 A3022 RMK AO2 SLP237 T00391094 56018
Loading
Personal Weather Stations






























Interactive Weather Map New forecast layout! Learn more

10-Day Weather Forecast

Advertisements
Track Severe Weather on mobile